createdAt,value
2017-07-16T00:02:13.786Z,12.30
2017-07-16T00:04:41.362Z,12.20
2017-07-16T00:07:08.925Z,12.20
2017-07-16T00:09:36.441Z,12.30
2017-07-16T00:12:04.731Z,12.20
2017-07-16T00:14:32.267Z,12.20
2017-07-16T00:16:59.981Z,12.20
2017-07-16T00:19:27.503Z,12.10
2017-07-16T00:21:55.921Z,12.00
2017-07-16T00:24:23.482Z,12.00
2017-07-16T00:26:51.010Z,11.90
2017-07-16T00:29:19.425Z,11.80
2017-07-16T00:31:46.990Z,11.80
2017-07-16T00:34:14.541Z,11.80
2017-07-16T00:36:42.110Z,11.80
2017-07-16T00:39:09.640Z,11.80
2017-07-16T00:41:37.222Z,11.80
2017-07-16T00:44:04.780Z,11.80
2017-07-16T00:46:32.341Z,11.80
2017-07-16T00:49:00.001Z,11.80
2017-07-16T00:51:27.664Z,11.80
2017-07-16T00:53:55.227Z,11.70
2017-07-16T00:56:22.751Z,11.60
2017-07-16T00:58:51.165Z,11.40
2017-07-16T01:01:18.697Z,11.30
2017-07-16T01:03:46.223Z,11.30
2017-07-16T01:06:13.770Z,11.20
2017-07-16T01:08:41.303Z,11.30
2017-07-16T01:11:08.827Z,11.20
2017-07-16T01:13:37.239Z,11.00
2017-07-16T01:16:04.802Z,11.00
2017-07-16T01:18:32.327Z,10.90
2017-07-16T01:20:59.923Z,10.90
2017-07-16T01:23:27.446Z,10.80
2017-07-16T01:25:54.974Z,10.80
2017-07-16T01:28:22.606Z,10.70
2017-07-16T01:30:50.162Z,10.70
2017-07-16T01:33:17.718Z,10.60
2017-07-16T01:35:45.282Z,10.60
2017-07-16T01:38:12.940Z,10.50
2017-07-16T01:40:40.470Z,10.60
2017-07-16T01:43:08.025Z,10.60
2017-07-16T01:45:36.334Z,10.60
2017-07-16T01:48:03.858Z,10.50
2017-07-16T01:50:32.169Z,10.50
2017-07-16T01:52:59.733Z,10.50
2017-07-16T01:55:27.279Z,10.50
2017-07-16T01:57:54.823Z,10.50
2017-07-16T02:00:22.417Z,10.40
2017-07-16T02:02:49.980Z,10.40
2017-07-16T02:05:17.536Z,10.30
2017-07-16T02:07:45.071Z,10.30
2017-07-16T02:10:12.594Z,10.30
2017-07-16T02:12:40.218Z,10.20
2017-07-16T02:15:07.758Z,10.20
2017-07-16T02:17:35.291Z,10.10
2017-07-16T02:20:03.597Z,10.00
2017-07-16T02:22:31.157Z,10.00
2017-07-16T02:24:58.730Z,9.90
2017-07-16T02:27:26.284Z,9.90
2017-07-16T02:29:53.806Z,9.90
2017-07-16T02:32:22.092Z,9.80
2017-07-16T02:34:49.629Z,9.80
2017-07-16T02:37:17.970Z,9.70
2017-07-16T02:39:45.837Z,9.70
2017-07-16T02:42:13.371Z,9.70
2017-07-16T02:44:41.048Z,9.60
2017-07-16T02:47:08.619Z,9.60
2017-07-16T02:49:36.172Z,9.50
2017-07-16T02:52:03.742Z,9.50
2017-07-16T02:54:31.304Z,9.60
2017-07-16T02:56:59.052Z,9.60
2017-07-16T02:59:26.578Z,9.60
2017-07-16T03:01:54.918Z,9.60
2017-07-16T03:04:22.655Z,9.60
2017-07-16T03:06:50.221Z,9.60
2017-07-16T03:09:17.779Z,9.60
2017-07-16T03:11:45.347Z,9.50
2017-07-16T03:14:12.893Z,9.50
2017-07-16T03:16:40.555Z,9.40
2017-07-16T03:19:08.095Z,9.40
2017-07-16T03:21:35.630Z,9.40
2017-07-16T03:24:04.054Z,9.40
2017-07-16T03:26:31.615Z,9.30
2017-07-16T03:28:59.276Z,9.30
2017-07-16T03:31:26.790Z,9.30
2017-07-16T03:33:55.112Z,9.20
2017-07-16T03:36:22.677Z,9.20
2017-07-16T03:38:50.237Z,9.20
2017-07-16T03:41:17.802Z,9.20
2017-07-16T03:43:45.352Z,9.20
2017-07-16T03:46:12.880Z,9.20
2017-07-16T03:48:41.292Z,9.20
2017-07-16T03:51:08.822Z,9.20
2017-07-16T03:53:36.350Z,9.20
2017-07-16T03:56:03.926Z,9.30
2017-07-16T03:58:32.258Z,9.30
2017-07-16T04:00:59.781Z,9.30
2017-07-16T04:03:27.379Z,9.30
2017-07-16T04:05:54.908Z,9.40
2017-07-16T04:08:22.421Z,9.40
2017-07-16T04:10:50.151Z,9.40
2017-07-16T04:13:17.721Z,9.50
2017-07-16T04:15:45.281Z,9.50
2017-07-16T04:18:12.822Z,9.60
2017-07-16T04:20:40.345Z,9.70
2017-07-16T04:23:08.625Z,9.80
2017-07-16T04:25:36.946Z,9.80
2017-07-16T04:28:04.461Z,9.80
2017-07-16T04:30:32.752Z,10.00
2017-07-16T04:33:00.291Z,10.00
2017-07-16T04:35:28.582Z,10.10
2017-07-16T04:37:56.903Z,10.10
2017-07-16T04:40:24.443Z,10.20
2017-07-16T04:42:51.968Z,10.20
2017-07-16T04:45:20.295Z,10.40
2017-07-16T04:47:47.851Z,10.40
2017-07-16T04:50:15.374Z,10.40
2017-07-16T04:52:43.691Z,10.70
2017-07-16T04:55:11.251Z,10.60
2017-07-16T04:57:38.771Z,10.80
2017-07-16T05:00:06.315Z,10.90
2017-07-16T05:02:34.630Z,11.00
2017-07-16T05:05:02.150Z,11.00
2017-07-16T05:07:29.775Z,11.10
2017-07-16T05:09:57.327Z,11.20
2017-07-16T05:12:24.854Z,11.20
2017-07-16T05:14:53.174Z,11.40
2017-07-16T05:17:20.830Z,11.40
2017-07-16T05:19:48.365Z,11.50
2017-07-16T05:22:15.890Z,11.60
2017-07-16T05:24:43.506Z,11.60
2017-07-16T05:27:11.035Z,11.70
2017-07-16T05:29:38.635Z,11.90
2017-07-16T05:32:06.292Z,11.90
2017-07-16T05:34:33.817Z,12.10
2017-07-16T05:37:02.227Z,12.30
2017-07-16T05:39:29.787Z,12.30
2017-07-16T05:41:57.319Z,12.40
2017-07-16T05:44:24.924Z,12.50
2017-07-16T05:46:52.461Z,12.50
2017-07-16T05:49:19.982Z,12.60
2017-07-16T05:51:48.275Z,12.80
2017-07-16T05:54:15.818Z,12.80
2017-07-16T05:56:44.119Z,13.00
2017-07-16T05:59:11.647Z,13.00
2017-07-16T06:01:39.186Z,13.10
2017-07-16T06:04:06.726Z,13.20
2017-07-16T06:06:34.278Z,13.30
2017-07-16T06:09:01.937Z,13.40
2017-07-16T06:11:29.503Z,13.50
2017-07-16T06:13:57.059Z,13.60
2017-07-16T06:16:24.625Z,13.70
2017-07-16T06:18:52.280Z,13.80
2017-07-16T06:21:19.803Z,13.90
2017-07-16T06:23:48.222Z,14.10
2017-07-16T06:26:15.778Z,14.00
2017-07-16T06:28:43.644Z,14.20
2017-07-16T06:31:11.216Z,14.40
2017-07-16T06:33:38.738Z,14.60
2017-07-16T06:36:06.266Z,14.70
2017-07-16T06:38:33.902Z,14.80
2017-07-16T06:41:01.422Z,14.80
2017-07-16T06:43:28.947Z,15.00
2017-07-16T06:45:56.485Z,14.90
2017-07-16T06:48:24.030Z,15.10
2017-07-16T06:50:51.572Z,15.20
2017-07-16T06:53:19.146Z,15.30
2017-07-16T06:55:46.672Z,15.40
2017-07-16T06:58:14.199Z,15.50
2017-07-16T07:00:41.753Z,15.70
2017-07-16T07:03:09.269Z,15.80
2017-07-16T07:05:36.843Z,15.80
2017-07-16T07:08:04.680Z,16.00
2017-07-16T07:10:32.219Z,16.20
2017-07-16T07:13:00.511Z,16.40
2017-07-16T07:15:28.065Z,16.40
2017-07-16T07:17:56.480Z,16.70
2017-07-16T07:20:24.008Z,16.70
2017-07-16T07:22:51.591Z,16.80
2017-07-16T07:25:19.161Z,16.90
2017-07-16T07:27:46.719Z,17.00
2017-07-16T07:30:14.279Z,17.00
2017-07-16T07:32:41.839Z,17.00
2017-07-16T07:35:09.366Z,17.00
2017-07-16T07:37:36.919Z,17.10
2017-07-16T07:40:04.520Z,17.20
2017-07-16T07:42:32.054Z,17.40
2017-07-16T07:44:59.603Z,17.50
2017-07-16T07:47:27.913Z,17.70
2017-07-16T07:49:55.439Z,17.70
2017-07-16T07:52:23.751Z,18.10
2017-07-16T07:54:51.275Z,18.00
2017-07-16T07:57:19.595Z,18.20
2017-07-16T07:59:47.247Z,18.20
2017-07-16T08:02:14.771Z,18.20
2017-07-16T08:04:43.063Z,18.20
2017-07-16T08:07:10.610Z,18.20
2017-07-16T08:09:38.142Z,18.20
2017-07-16T08:12:05.674Z,18.20
2017-07-16T08:14:33.225Z,18.30
2017-07-16T08:17:00.785Z,18.40
2017-07-16T08:19:28.346Z,18.60
2017-07-16T08:21:55.999Z,18.80
2017-07-16T08:24:23.517Z,18.90
2017-07-16T08:26:51.831Z,19.00
2017-07-16T08:29:19.577Z,19.00
2017-07-16T08:31:47.206Z,19.00
2017-07-16T08:34:14.739Z,19.00
2017-07-16T08:36:42.286Z,19.30
2017-07-16T08:39:09.846Z,19.60
2017-07-16T08:41:37.380Z,19.80
2017-07-16T08:44:04.926Z,20.00
2017-07-16T08:46:33.215Z,20.40
2017-07-16T08:49:00.793Z,20.40
2017-07-16T08:51:28.357Z,20.70
2017-07-16T08:53:56.013Z,20.70
2017-07-16T08:56:23.677Z,20.50
2017-07-16T08:58:51.242Z,20.40
2017-07-16T09:01:18.795Z,20.30
2017-07-16T09:03:46.328Z,20.50
2017-07-16T09:06:14.014Z,20.70
2017-07-16T09:08:41.894Z,21.10
2017-07-16T09:11:09.422Z,21.10
2017-07-16T09:13:36.999Z,21.10
2017-07-16T09:16:04.663Z,21.10
2017-07-16T09:18:32.234Z,20.90
2017-07-16T09:20:59.799Z,20.90
2017-07-16T09:23:27.347Z,20.70
2017-07-16T09:25:54.879Z,20.70
2017-07-16T09:28:22.440Z,20.50
2017-07-16T09:30:49.965Z,20.60
2017-07-16T09:33:17.495Z,20.90
2017-07-16T09:35:45.354Z,21.00
2017-07-16T09:38:12.878Z,20.90
2017-07-16T09:40:40.401Z,20.70
2017-07-16T09:43:07.964Z,20.70
2017-07-16T09:45:35.487Z,20.90
2017-07-16T09:48:03.081Z,21.30
2017-07-16T09:50:30.645Z,21.70
2017-07-16T09:52:58.175Z,22.00
2017-07-16T09:55:25.698Z,22.10
2017-07-16T09:57:53.253Z,22.30
2017-07-16T10:00:20.782Z,22.10
2017-07-16T10:02:48.313Z,22.10
2017-07-16T10:05:15.874Z,21.90
2017-07-16T10:07:43.402Z,21.80
2017-07-16T10:10:10.932Z,21.80
2017-07-16T10:12:39.245Z,21.90
2017-07-16T10:15:06.769Z,21.90
2017-07-16T10:17:35.060Z,22.20
2017-07-16T10:20:02.621Z,22.20
2017-07-16T10:22:30.143Z,22.50
2017-07-16T10:24:57.666Z,23.10
2017-07-16T10:27:25.327Z,23.30
2017-07-16T10:29:52.859Z,23.40
2017-07-16T10:32:20.383Z,23.50
2017-07-16T10:34:47.957Z,23.60
2017-07-16T10:37:16.281Z,23.60
2017-07-16T10:39:43.815Z,23.60
2017-07-16T10:42:11.410Z,23.80
2017-07-16T10:44:38.938Z,24.00
2017-07-16T10:47:06.467Z,24.10
2017-07-16T10:49:34.010Z,23.90
2017-07-16T10:52:01.527Z,23.30
2017-07-16T10:54:29.050Z,23.10
2017-07-16T10:56:57.445Z,23.20
2017-07-16T10:59:24.969Z,23.10
2017-07-16T11:01:52.495Z,23.80
2017-07-16T11:04:20.050Z,24.60
2017-07-16T11:06:47.570Z,25.20
2017-07-16T11:09:15.885Z,25.40
2017-07-16T11:11:43.444Z,25.40
2017-07-16T11:14:10.965Z,25.60
2017-07-16T11:16:39.258Z,26.20
2017-07-16T11:19:06.805Z,26.20
2017-07-16T11:21:35.095Z,27.50
2017-07-16T11:24:04.095Z,27.70
2017-07-16T11:26:31.645Z,27.60
2017-07-16T11:28:59.191Z,28.00
2017-07-16T11:31:27.490Z,30.00
2017-07-16T11:33:55.043Z,29.90
2017-07-16T11:36:22.556Z,30.70
2017-07-16T11:38:50.076Z,32.10
2017-07-16T11:41:17.767Z,32.80
2017-07-16T11:43:45.290Z,31.40
2017-07-16T11:46:12.826Z,31.60
2017-07-16T11:48:41.143Z,30.60
2017-07-16T11:51:08.670Z,30.60
2017-07-16T11:53:36.958Z,34.00
2017-07-16T11:56:05.334Z,35.30
2017-07-16T11:58:33.644Z,36.40
2017-07-16T12:01:01.172Z,36.30
2017-07-16T12:03:28.763Z,35.90
2017-07-16T12:05:56.299Z,35.80
2017-07-16T12:08:23.830Z,37.40
2017-07-16T12:10:51.397Z,38.40
2017-07-16T12:13:19.726Z,40.80
2017-07-16T12:15:47.265Z,40.70
2017-07-16T12:18:14.821Z,40.40
2017-07-16T12:20:42.346Z,38.20
2017-07-16T12:23:09.927Z,39.70
2017-07-16T12:25:37.487Z,39.40
2017-07-16T12:28:05.013Z,40.00
2017-07-16T12:30:32.710Z,39.70
2017-07-16T12:33:00.263Z,39.50
2017-07-16T12:35:27.789Z,40.50
2017-07-16T12:37:55.336Z,42.60
2017-07-16T12:40:22.899Z,43.40
2017-07-16T12:42:50.433Z,43.30
2017-07-16T12:45:17.960Z,41.60
2017-07-16T12:47:46.416Z,39.90
2017-07-16T12:50:14.039Z,39.80
2017-07-16T12:52:41.569Z,39.70
2017-07-16T12:55:09.132Z,40.70
2017-07-16T12:57:36.667Z,40.00
2017-07-16T13:00:04.964Z,39.70
2017-07-16T13:02:34.091Z,41.50
2017-07-16T13:05:01.619Z,41.50
2017-07-16T13:07:29.930Z,43.50
2017-07-16T13:09:57.473Z,43.40
2017-07-16T13:12:25.291Z,42.30
2017-07-16T13:14:52.916Z,38.80
2017-07-16T13:17:20.468Z,39.00
2017-07-16T13:19:47.998Z,40.50
2017-07-16T13:22:16.288Z,41.50
2017-07-16T13:24:43.831Z,41.50
2017-07-16T13:27:12.124Z,40.80
2017-07-16T13:29:39.663Z,40.80
2017-07-16T13:32:08.015Z,41.70
2017-07-16T13:34:35.587Z,41.70
2017-07-16T13:37:03.137Z,42.60
2017-07-16T13:39:30.674Z,41.30
2017-07-16T13:41:58.204Z,41.20
2017-07-16T13:44:25.810Z,41.10
2017-07-16T13:46:53.354Z,39.10
2017-07-16T13:49:20.882Z,38.90
2017-07-16T13:51:48.440Z,35.20
2017-07-16T13:54:15.984Z,33.70
2017-07-16T13:56:44.298Z,35.80
2017-07-16T13:59:11.850Z,35.80
2017-07-16T14:01:39.483Z,38.00
2017-07-16T14:04:07.773Z,42.00
2017-07-16T14:06:35.296Z,42.00
2017-07-16T14:09:02.845Z,43.60
2017-07-16T14:11:30.367Z,43.20
2017-07-16T14:13:58.258Z,42.60
2017-07-16T14:16:25.821Z,41.00
2017-07-16T14:18:53.346Z,39.70
2017-07-16T14:21:20.873Z,42.20
2017-07-16T14:23:49.197Z,40.40
2017-07-16T14:26:16.732Z,40.30
2017-07-16T14:28:44.307Z,41.20
2017-07-16T14:31:11.878Z,41.10
2017-07-16T14:33:39.404Z,41.30
2017-07-16T14:36:06.934Z,41.80
2017-07-16T14:38:34.532Z,41.70
2017-07-16T14:41:02.058Z,39.80
2017-07-16T14:43:29.584Z,40.80
2017-07-16T14:45:57.163Z,41.30
2017-07-16T14:48:24.694Z,41.80
2017-07-16T14:50:52.222Z,41.20
2017-07-16T14:53:19.826Z,39.60
2017-07-16T14:55:47.422Z,39.30
2017-07-16T14:58:15.722Z,40.00
2017-07-16T15:00:43.362Z,40.00
2017-07-16T15:03:11.705Z,38.60
2017-07-16T15:05:39.250Z,38.50
2017-07-16T15:08:06.831Z,38.50
2017-07-16T15:10:34.364Z,37.20
2017-07-16T15:13:01.958Z,37.60
2017-07-16T15:15:29.587Z,36.70
2017-07-16T15:17:57.119Z,36.20
2017-07-16T15:20:24.647Z,36.90
2017-07-16T15:22:52.206Z,35.50
2017-07-16T15:25:19.827Z,33.30
2017-07-16T15:27:47.351Z,30.80
2017-07-16T15:30:14.903Z,29.30
2017-07-16T15:32:43.335Z,28.10
2017-07-16T15:35:10.858Z,28.00
2017-07-16T15:37:38.402Z,28.30
2017-07-16T15:40:06.691Z,29.30
2017-07-16T15:42:34.223Z,29.20
2017-07-16T15:45:02.532Z,28.40
2017-07-16T15:47:30.067Z,28.40
2017-07-16T15:49:58.403Z,28.80
2017-07-16T15:52:25.956Z,28.80
2017-07-16T15:54:54.332Z,30.90
2017-07-16T15:57:21.857Z,30.80
2017-07-16T15:59:50.902Z,34.00
2017-07-16T16:02:18.426Z,34.00
2017-07-16T16:04:46.833Z,36.60
2017-07-16T16:07:14.378Z,36.50
2017-07-16T16:09:41.910Z,38.10
2017-07-16T16:12:09.448Z,38.00
2017-07-16T16:14:37.770Z,37.10
2017-07-16T16:17:05.333Z,37.10
2017-07-16T16:19:32.886Z,36.60
2017-07-16T16:22:00.444Z,36.40
2017-07-16T16:24:27.965Z,35.60
2017-07-16T16:26:56.253Z,33.30
2017-07-16T16:29:23.796Z,33.20
2017-07-16T16:31:52.219Z,31.00
2017-07-16T16:34:19.791Z,30.90
2017-07-16T16:36:47.334Z,29.90
2017-07-16T16:39:14.862Z,29.10
2017-07-16T16:41:43.151Z,28.10
2017-07-16T16:44:10.694Z,28.10
2017-07-16T16:46:39.106Z,27.40
2017-07-16T16:49:06.651Z,27.30
2017-07-16T16:51:34.195Z,27.00
2017-07-16T16:54:02.482Z,26.90
2017-07-16T16:56:30.010Z,26.90
2017-07-16T16:58:57.729Z,26.70
2017-07-16T17:01:25.315Z,26.40
2017-07-16T17:03:52.833Z,26.20
2017-07-16T17:06:20.392Z,26.20
2017-07-16T17:08:49.061Z,25.90
2017-07-16T17:11:16.649Z,25.50
2017-07-16T17:13:44.195Z,25.20
2017-07-16T17:16:11.730Z,25.00
2017-07-16T17:18:39.257Z,24.90
2017-07-16T17:21:06.803Z,24.70
2017-07-16T17:23:34.321Z,24.50
2017-07-16T17:26:01.845Z,24.40
2017-07-16T17:28:29.390Z,24.20
2017-07-16T17:30:56.921Z,24.10
2017-07-16T17:33:24.486Z,24.00
2017-07-16T17:35:52.031Z,23.80
2017-07-16T17:38:19.616Z,23.70
2017-07-16T17:40:47.171Z,23.60
2017-07-16T17:43:15.041Z,23.70
2017-07-16T17:45:42.564Z,23.70
2017-07-16T17:48:10.157Z,23.80
2017-07-16T17:50:37.716Z,23.80
2017-07-16T17:53:05.367Z,23.80
2017-07-16T17:55:32.886Z,23.70
2017-07-16T17:58:01.211Z,23.60
2017-07-16T18:00:28.871Z,23.50
2017-07-16T18:02:56.403Z,23.50
2017-07-16T18:05:23.975Z,23.40
2017-07-16T18:07:51.506Z,23.30
2017-07-16T18:10:19.827Z,23.10
2017-07-16T18:12:47.383Z,23.10
2017-07-16T18:15:14.918Z,23.10
2017-07-16T18:17:42.450Z,23.10
2017-07-16T18:20:10.782Z,23.00
2017-07-16T18:22:38.435Z,23.00
2017-07-16T18:25:06.006Z,23.00
2017-07-16T18:27:33.566Z,22.90
2017-07-16T18:30:01.095Z,22.90
2017-07-16T18:32:28.630Z,22.90
2017-07-16T18:34:56.958Z,22.90
2017-07-16T18:37:24.627Z,22.80
2017-07-16T18:39:52.150Z,22.80
2017-07-16T18:42:19.701Z,22.80
2017-07-16T18:44:47.250Z,22.70
2017-07-16T18:47:15.633Z,22.40
2017-07-16T18:49:43.241Z,22.30
2017-07-16T18:52:10.761Z,22.30
2017-07-16T18:54:38.316Z,22.10
2017-07-16T18:57:06.635Z,21.90
2017-07-16T18:59:34.187Z,21.90
2017-07-16T19:02:01.717Z,21.80
2017-07-16T19:04:29.327Z,21.70
2017-07-16T19:06:56.932Z,21.60
2017-07-16T19:09:24.729Z,21.60
2017-07-16T19:11:52.310Z,21.50
2017-07-16T19:14:20.257Z,21.40
2017-07-16T19:16:47.845Z,21.40
2017-07-16T19:19:15.418Z,21.30
2017-07-16T19:21:42.942Z,21.30
2017-07-16T19:24:10.513Z,21.20
2017-07-16T19:26:38.078Z,21.20
2017-07-16T19:29:05.921Z,21.10
2017-07-16T19:31:33.469Z,21.10
2017-07-16T19:34:01.046Z,21.00
2017-07-16T19:36:28.571Z,21.00
2017-07-16T19:38:56.340Z,20.90
2017-07-16T19:41:23.926Z,20.90
2017-07-16T19:43:52.241Z,20.80
2017-07-16T19:46:19.759Z,20.80
2017-07-16T19:48:47.424Z,20.80
2017-07-16T19:51:15.506Z,20.70
2017-07-16T19:53:43.366Z,20.60
2017-07-16T19:56:10.921Z,20.50
2017-07-16T19:58:38.489Z,20.30
2017-07-16T20:01:06.026Z,20.30
2017-07-16T20:03:33.581Z,20.20
2017-07-16T20:06:01.113Z,20.10
2017-07-16T20:08:29.738Z,20.00
2017-07-16T20:10:57.315Z,20.00
2017-07-16T20:13:24.842Z,19.90
2017-07-16T20:15:52.374Z,19.90
2017-07-16T20:18:20.698Z,19.80
2017-07-16T20:20:48.231Z,19.80
2017-07-16T20:23:15.824Z,19.80
2017-07-16T20:25:43.480Z,19.80
2017-07-16T20:28:11.007Z,19.70
2017-07-16T20:30:38.532Z,19.70
2017-07-16T20:33:06.078Z,19.60
2017-07-16T20:35:33.610Z,19.50
2017-07-16T20:38:01.150Z,19.50
2017-07-16T20:40:28.736Z,19.50
2017-07-16T20:42:56.268Z,19.40
2017-07-16T20:45:23.855Z,19.40
2017-07-16T20:47:51.505Z,19.30
2017-07-16T20:50:19.036Z,19.20
2017-07-16T20:52:46.636Z,19.10
2017-07-16T20:55:14.192Z,19.10
2017-07-16T20:57:41.717Z,19.10
2017-07-16T21:00:09.244Z,19.00
2017-07-16T21:02:36.791Z,18.90
2017-07-16T21:05:04.325Z,18.90
2017-07-16T21:07:31.898Z,18.80
2017-07-16T21:09:59.545Z,18.80
2017-07-16T21:12:27.072Z,18.90
2017-07-16T21:14:54.663Z,18.90
2017-07-16T21:17:22.210Z,18.90
2017-07-16T21:19:49.738Z,18.90
2017-07-16T21:22:18.277Z,18.90
2017-07-16T21:24:46.024Z,18.80
2017-07-16T21:27:13.686Z,18.80
2017-07-16T21:29:41.244Z,18.80
2017-07-16T21:32:08.790Z,18.80
2017-07-16T21:34:36.366Z,18.80
2017-07-16T21:37:03.935Z,18.80
2017-07-16T21:39:31.492Z,18.80
2017-07-16T21:41:59.018Z,18.80
2017-07-16T21:44:26.547Z,18.70
2017-07-16T21:46:54.138Z,18.70
2017-07-16T21:49:21.727Z,18.80
2017-07-16T21:51:49.254Z,18.70
2017-07-16T21:54:16.851Z,18.70
2017-07-16T21:56:44.373Z,18.70
2017-07-16T21:59:11.903Z,18.70
2017-07-16T22:01:40.812Z,18.60
2017-07-16T22:04:09.107Z,18.50
2017-07-16T22:06:36.693Z,18.50
2017-07-16T22:09:04.229Z,18.40
2017-07-16T22:11:31.814Z,18.40
2017-07-16T22:13:59.365Z,18.30
2017-07-16T22:16:26.914Z,18.20
2017-07-16T22:18:54.487Z,18.00
2017-07-16T22:21:22.010Z,17.90
2017-07-16T22:23:50.314Z,17.80
2017-07-16T22:26:17.879Z,17.70
2017-07-16T22:28:45.445Z,17.70
2017-07-16T22:31:13.011Z,17.70
2017-07-16T22:33:40.540Z,17.60
2017-07-16T22:36:08.138Z,17.60
2017-07-16T22:38:35.682Z,17.60
2017-07-16T22:41:03.204Z,17.50
2017-07-16T22:43:31.519Z,17.40
2017-07-16T22:45:59.182Z,17.40
2017-07-16T22:48:26.699Z,17.30
2017-07-16T22:50:54.988Z,17.10
2017-07-16T22:53:22.535Z,17.10
2017-07-16T22:55:50.854Z,16.90
2017-07-16T22:58:18.413Z,16.90
2017-07-16T23:00:45.979Z,16.90
2017-07-16T23:03:13.536Z,16.80
2017-07-16T23:05:41.095Z,16.80
2017-07-16T23:08:08.639Z,16.80
2017-07-16T23:10:36.162Z,16.80
2017-07-16T23:13:03.690Z,16.80
2017-07-16T23:15:31.255Z,16.80
2017-07-16T23:17:58.785Z,16.80
2017-07-16T23:20:26.311Z,16.80
2017-07-16T23:22:54.619Z,16.90
2017-07-16T23:25:22.143Z,16.90
2017-07-16T23:27:50.437Z,17.00
2017-07-16T23:30:17.975Z,17.00
2017-07-16T23:32:46.267Z,17.00
2017-07-16T23:35:13.868Z,17.00
2017-07-16T23:37:41.412Z,17.00
2017-07-16T23:40:08.979Z,16.90
2017-07-16T23:42:36.498Z,16.90
2017-07-16T23:45:04.038Z,16.90
2017-07-16T23:47:31.561Z,16.90
2017-07-16T23:49:59.078Z,16.90
2017-07-16T23:52:26.624Z,16.90
2017-07-16T23:54:54.178Z,16.80
2017-07-16T23:57:21.704Z,16.80
2017-07-16T23:59:49.248Z,16.80
